Time;durP1;ratioP1;P1;durP2;ratioP2;P2;SDS_P1;SDS_P2;PMS_P1;PMS_P2;Temp;Humidity;BMP_temperature;BMP_pressure;BME280_temperature;BME280_humidity;BME280_pressure;Samples;Min_cycle;Max_cycle;Signal;HPM_P1;HPM_P2
2023/11/29 00:01:23;;;;;;;10.00;6.97;;;-0.20;82.10;;;1.90;58.90;96786.63;5010730;28;20413;-57
2023/11/29 00:03:51;;;;;;;9.00;6.27;;;-0.20;82.00;;;1.89;58.89;96782.31;5010594;28;20487;-58
2023/11/29 00:06:18;;;;;;;10.00;6.03;;;-0.30;82.60;;;1.86;58.73;96785.22;5010431;28;20073;-57
2023/11/29 00:08:46;;;;;;;10.07;6.63;;;-0.30;83.30;;;1.85;59.22;96777.47;5010634;28;20418;-56
2023/11/29 00:11:14;;;;;;;8.93;5.93;;;-0.30;83.40;;;1.84;59.19;96779.28;5010413;28;20053;-57
2023/11/29 00:13:42;;;;;;;10.97;6.37;;;-0.30;83.70;;;1.83;58.98;96782.03;5010559;28;20443;-57
2023/11/29 00:16:10;;;;;;;9.13;6.80;;;-0.30;84.30;;;1.81;59.49;96774.28;5010185;28;20061;-56
2023/11/29 00:18:37;;;;;;;10.17;5.63;;;-0.30;84.30;;;1.81;59.32;96771.66;5010571;28;20045;-57
2023/11/29 00:21:06;;;;;;;9.10;6.63;;;-0.40;83.90;;;1.76;59.33;96766.78;5010327;28;20052;-57
2023/11/29 00:23:34;;;;;;;9.07;5.77;;;-0.30;84.90;;;1.75;59.83;96766.91;5009028;28;20395;-56
2023/11/29 00:26:02;;;;;;;9.90;6.87;;;-0.40;85.10;;;1.71;59.96;96765.50;5010198;28;20049;-57
2023/11/29 00:28:30;;;;;;;9.23;6.87;;;-0.40;85.60;;;1.72;59.91;96764.53;5010141;28;20069;-55
2023/11/29 00:30:57;;;;;;;12.40;7.47;;;-0.40;86.00;;;1.71;59.65;96760.25;5010268;28;20037;-57
2023/11/29 00:33:25;;;;;;;8.43;6.00;;;-0.40;85.70;;;1.73;59.83;96764.41;5008882;28;20058;-56
2023/11/29 00:35:55;;;;;;;8.43;6.43;;;-0.40;85.90;;;1.74;60.29;96766.06;5008918;28;20061;-56
2023/11/29 00:38:23;;;;;;;9.00;5.97;;;-0.40;85.30;;;1.74;59.88;96759.97;5008957;28;20050;-57
2023/11/29 00:40:51;;;;;;;10.07;5.53;;;-0.30;85.10;;;1.77;59.59;96757.94;5009284;28;20424;-56
2023/11/29 00:43:19;;;;;;;10.27;5.70;;;-0.30;84.80;;;1.82;60.01;96757.53;5009028;28;20054;-56
2023/11/29 00:45:46;;;;;;;10.57;6.30;;;-0.30;84.60;;;1.82;59.46;96757.53;5011623;28;20470;-56
2023/11/29 00:48:15;;;;;;;11.70;5.70;;;-0.30;84.00;;;1.79;59.59;96751.75;5012590;28;20415;-56
2023/11/29 00:50:42;;;;;;;9.20;6.97;;;-0.30;84.40;;;1.76;59.85;96756.28;5012691;28;20495;-56
2023/11/29 00:53:10;;;;;;;8.43;6.03;;;-0.40;84.50;;;1.73;60.17;96753.91;5012758;28;20046;-56
2023/11/29 00:55:38;;;;;;;10.27;6.23;;;-0.40;85.20;;;1.71;60.14;96750.59;5012314;28;20494;-57
2023/11/29 00:58:05;;;;;;;14.60;7.07;;;-0.40;84.90;;;1.69;60.18;96749.06;5012490;28;20072;-57
2023/11/29 01:00:33;;;;;;;10.60;6.83;;;-0.40;84.90;;;1.64;60.05;96736.31;5011994;28;20053;-55
2023/11/29 01:03:00;;;;;;;12.47;7.00;;;-0.40;84.80;;;1.66;60.17;96742.25;5012470;28;20522;-57
2023/11/29 01:05:28;;;;;;;11.73;7.17;;;-0.40;85.80;;;1.71;60.26;96747.97;5013093;28;20053;-56
2023/11/29 01:07:56;;;;;;;12.30;7.60;;;-0.30;85.80;;;1.79;60.14;96749.13;5012600;28;20534;-58
2023/11/29 01:10:24;;;;;;;10.17;7.13;;;-0.20;85.40;;;1.83;59.95;96740.84;5012243;28;20064;-55
2023/11/29 01:12:52;;;;;;;12.33;7.07;;;-0.20;84.50;;;1.84;59.95;96736.41;5012258;28;20097;-57
2023/11/29 01:15:20;;;;;;;11.53;7.20;;;-0.20;84.50;;;1.83;59.95;96740.03;5011717;28;20060;-58
2023/11/29 01:17:47;;;;;;;12.17;7.47;;;-0.20;84.40;;;1.85;60.41;96744.19;5013218;28;20041;-56
2023/11/29 01:20:15;;;;;;;11.47;6.97;;;-0.20;84.60;;;1.86;60.22;96739.75;5011992;28;20050;-57
2023/11/29 01:22:44;;;;;;;12.03;7.10;;;-0.20;84.90;;;1.84;59.76;96742.53;5011600;28;20045;-57
2023/11/29 01:25:12;;;;;;;11.03;7.57;;;-0.30;85.10;;;1.83;60.24;96747.91;5012900;28;20046;-55
2023/11/29 01:27:40;;;;;;;12.50;6.73;;;-0.30;85.50;;;1.82;59.78;96746.22;5012986;28;20057;-56
2023/11/29 01:30:09;;;;;;;10.07;7.20;;;-0.30;85.30;;;1.82;60.12;96749.66;5012618;28;20049;-57
2023/11/29 01:32:37;;;;;;;9.60;6.57;;;-0.30;86.00;;;1.84;59.83;96737.28;5011930;28;20084;-59
2023/11/29 01:35:05;;;;;;;10.77;6.73;;;-0.30;85.70;;;1.84;60.18;96741.66;5012670;28;20530;-56
2023/11/29 01:37:34;;;;;;;10.20;6.70;;;-0.30;85.30;;;1.87;60.06;96747.50;5012747;28;20392;-55
2023/11/29 01:40:02;;;;;;;9.47;5.80;;;-0.30;85.10;;;1.87;59.89;96746.69;5011369;28;20454;-56
2023/11/29 01:42:30;;;;;;;12.23;7.13;;;-0.20;85.20;;;1.87;60.09;96742.25;5012812;28;20050;-56
2023/11/29 01:44:58;;;;;;;10.67;6.47;;;-0.20;85.40;;;1.89;60.12;96740.31;4994927;28;20519;-56
2023/11/29 01:47:26;;;;;;;12.13;7.20;;;-0.20;85.10;;;1.89;59.68;96736.88;5011398;28;20049;-55
2023/11/29 01:49:53;;;;;;;14.07;7.70;;;-0.20;85.30;;;1.91;60.06;96737.59;5009846;28;20034;-55
2023/11/29 01:52:21;;;;;;;10.97;7.33;;;-0.20;85.00;;;1.92;60.05;96734.84;5011460;28;20395;-56
2023/11/29 01:54:49;;;;;;;12.03;7.43;;;-0.20;85.00;;;1.97;59.85;96740.50;4994734;28;20053;-55
2023/11/29 01:57:17;;;;;;;10.07;6.80;;;-0.10;84.80;;;1.99;59.76;96742.19;5011335;28;20046;-54
2023/11/29 01:59:44;;;;;;;11.43;7.23;;;-0.10;84.80;;;1.99;60.05;96740.38;4994397;28;20046;-54
2023/11/29 02:02:12;;;;;;;12.23;7.83;;;-0.10;84.20;;;2.04;59.73;96740.84;5012486;28;20419;-55
2023/11/29 02:04:41;;;;;;;10.33;6.50;;;0.00;84.00;;;2.06;59.73;96738.91;5010857;28;20507;-56
2023/11/29 02:07:11;;;;;;;11.00;7.03;;;0.00;82.80;;;2.02;59.42;96727.00;5011362;28;20194;-56
2023/11/29 02:09:42;;;;;;;10.97;6.83;;;0.00;82.60;;;1.98;59.42;96728.22;5010991;28;20436;-55
2023/11/29 02:12:10;;;;;;;11.93;7.30;;;-0.10;82.30;;;1.96;59.10;96724.91;5011174;28;20052;-55
2023/11/29 02:14:42;;;;;;;11.50;6.37;;;-0.20;82.80;;;1.91;59.08;96724.44;5010951;28;20050;-56
2023/11/29 02:17:10;;;;;;;10.07;5.90;;;-0.30;82.80;;;1.85;59.24;96720.56;5002623;28;20524;-56
2023/11/29 02:19:38;;;;;;;11.43;6.80;;;-0.30;82.10;;;1.80;59.48;96714.03;5012640;28;20411;-57
2023/11/29 02:22:05;;;;;;;10.03;5.67;;;-0.30;83.30;;;1.69;59.50;96709.69;4995551;28;20054;-55
2023/11/29 02:24:41;;;;;;;12.37;7.13;;;-0.50;82.70;;;1.68;59.36;96714.09;5010734;28;20052;-56
2023/11/29 02:27:09;;;;;;;10.50;5.90;;;-0.50;83.40;;;1.67;59.17;96701.13;5011995;28;20045;-55
2023/11/29 02:29:38;;;;;;;9.67;6.73;;;-0.40;83.00;;;1.60;59.46;96706.03;5011625;28;20057;-57
2023/11/29 02:32:07;;;;;;;10.53;6.17;;;-0.50;82.90;;;1.56;59.13;96708.09;5010806;28;20042;-57
2023/11/29 02:34:37;;;;;;;9.73;5.80;;;-0.60;83.00;;;1.55;59.17;96705.56;5010112;28;20423;-57
2023/11/29 02:37:05;;;;;;;9.10;5.43;;;-0.60;82.90;;;1.53;59.38;96716.22;5011870;28;20046;-54
2023/11/29 02:39:32;;;;;;;11.60;6.13;;;-0.60;83.40;;;1.49;59.06;96703.47;5011254;28;20427;-56
2023/11/29 02:42:00;;;;;;;10.43;5.60;;;-0.60;82.90;;;1.46;58.97;96699.31;5010056;28;20049;-56
2023/11/29 02:44:28;;;;;;;9.13;5.33;;;-0.70;82.80;;;1.42;59.44;96697.91;5010077;28;20046;-56
2023/11/29 02:46:56;;;;;;;7.33;4.97;;;-0.70;83.10;;;1.38;59.32;96691.25;5011795;28;20053;-55
2023/11/29 02:49:24;;;;;;;9.63;5.30;;;-0.70;83.20;;;1.37;59.32;96693.03;5010383;28;20400;-56
2023/11/29 02:51:52;;;;;;;10.60;5.57;;;-0.70;82.60;;;1.31;59.18;96696.16;5010540;28;20038;-54
2023/11/29 02:54:20;;;;;;;10.43;5.90;;;-0.80;82.20;;;1.30;59.33;96697.16;5010039;28;20061;-56
2023/11/29 02:56:47;;;;;;;9.57;4.80;;;-0.80;82.30;;;1.29;58.86;96689.41;5010390;28;20053;-56
2023/11/29 02:59:15;;;;;;;10.47;5.70;;;-0.80;82.10;;;1.24;59.04;96692.41;5010416;28;20054;-55
2023/11/29 03:01:43;;;;;;;9.50;5.53;;;-0.80;81.60;;;1.17;59.50;96696.47;5010456;28;20077;-54
2023/11/29 03:04:11;;;;;;;7.87;4.97;;;-0.80;81.40;;;1.22;59.05;96693.47;5010886;28;20057;-58
2023/11/29 03:06:38;;;;;;;8.73;6.10;;;-0.70;81.00;;;1.26;59.24;96690.50;5011289;28;20048;-57
2023/11/29 03:09:07;;;;;;;9.00;4.77;;;-0.60;81.50;;;1.26;59.56;96687.88;5001891;28;20069;-57
2023/11/29 03:11:34;;;;;;;8.47;4.57;;;-0.60;79.60;;;1.30;59.28;96691.91;5009934;28;20057;-55
2023/11/29 03:14:02;;;;;;;7.57;5.60;;;-0.60;80.00;;;1.32;59.06;96682.13;5010794;28;20061;-53
2023/11/29 03:16:30;;;;;;;8.80;5.47;;;-0.60;79.90;;;1.35;59.38;96681.00;5010273;28;20054;-57
2023/11/29 03:18:58;;;;;;;7.73;4.80;;;-0.60;79.90;;;1.32;58.83;96683.91;5009975;28;20046;-54
2023/11/29 03:21:26;;;;;;;8.10;4.60;;;-0.60;79.50;;;1.34;58.78;96682.00;5011021;28;20491;-55
2023/11/29 03:23:54;;;;;;;7.80;4.83;;;-0.60;79.40;;;1.34;59.04;96685.44;5009846;28;20492;-56
2023/11/29 03:26:21;;;;;;;7.37;4.57;;;-0.60;79.20;;;1.39;59.01;96682.41;5010217;28;20049;-56
2023/11/29 03:28:49;;;;;;;7.63;4.50;;;-0.60;79.40;;;1.33;58.46;96685.56;5011066;28;20219;-54
2023/11/29 03:31:17;;;;;;;7.87;4.67;;;-0.70;79.20;;;1.30;58.48;96688.41;5010048;28;20064;-55
2023/11/29 03:33:44;;;;;;;7.73;4.80;;;-0.70;79.50;;;1.27;58.71;96681.66;5009514;28;20542;-56
2023/11/29 03:36:12;;;;;;;6.40;3.87;;;-0.70;80.70;;;1.21;58.67;96679.53;5009944;28;20056;-55
2023/11/29 03:38:39;;;;;;;7.30;4.37;;;-0.80;80.50;;;1.16;58.88;96674.69;5009815;28;20099;-52
2023/11/29 03:41:08;;;;;;;8.27;4.67;;;-0.70;80.00;;;1.22;59.30;96683.00;4993343;28;20621;-55
2023/11/29 03:43:35;;;;;;;8.27;4.60;;;-0.60;79.80;;;1.23;58.71;96675.00;5009076;28;20038;-54
2023/11/29 03:46:03;;;;;;;7.17;4.53;;;-0.70;79.60;;;1.18;59.19;96672.78;5001581;28;20414;-55
2023/11/29 03:48:31;;;;;;;9.60;4.23;;;-0.70;79.60;;;1.24;58.62;96673.19;5011089;28;20049;-55
2023/11/29 03:51:02;;;;;;;8.10;4.60;;;-0.70;79.40;;;1.22;59.03;96669.88;5009764;28;20052;-57
2023/11/29 03:53:29;;;;;;;8.73;4.57;;;-0.80;79.90;;;1.20;59.01;96663.94;5010153;28;20048;-56
2023/11/29 03:55:57;;;;;;;7.57;4.57;;;-0.80;80.20;;;1.17;58.83;96657.16;5009422;28;20073;-57
2023/11/29 03:58:24;;;;;;;8.13;4.53;;;-0.90;80.70;;;1.05;58.82;96651.13;5009756;28;20049;-56
2023/11/29 04:00:52;;;;;;;7.83;4.90;;;-1.00;80.60;;;1.02;58.34;96656.63;5009390;28;20046;-55
2023/11/29 04:03:20;;;;;;;7.93;4.63;;;-1.00;81.10;;;0.97;59.22;96648.31;5009803;28;20058;-54
2023/11/29 04:05:47;;;;;;;7.70;4.10;;;-1.10;81.70;;;0.94;58.85;96641.53;5010300;28;20049;-55
2023/11/29 04:08:15;;;;;;;8.27;4.77;;;-1.10;82.00;;;0.96;59.36;96638.78;5009686;28;20065;-55
2023/11/29 04:10:43;;;;;;;7.83;4.50;;;-1.10;81.80;;;0.92;59.17;96632.13;5009598;28;20302;-57
2023/11/29 04:13:11;;;;;;;5.90;4.10;;;-1.10;81.70;;;0.92;58.78;96634.75;5010796;28;20041;-57
2023/11/29 04:15:39;;;;;;;7.40;4.47;;;-1.10;81.50;;;0.93;58.88;96629.41;5009221;28;20050;-55
2023/11/29 04:18:07;;;;;;;6.90;4.00;;;-1.10;81.70;;;0.96;59.05;96631.75;5010724;28;20056;-56
2023/11/29 04:20:34;;;;;;;9.43;3.57;;;-1.10;81.00;;;0.99;59.29;96625.44;5002773;28;20046;-58
2023/11/29 04:23:02;;;;;;;7.10;4.37;;;-1.00;81.10;;;1.03;58.95;96631.22;5012765;28;20419;-57
2023/11/29 04:25:30;;;;;;;7.20;4.27;;;-1.00;81.30;;;1.03;59.11;96629.47;5014786;28;20201;-57
2023/11/29 04:27:57;;;;;;;7.40;4.97;;;-1.00;81.00;;;1.02;58.64;96622.53;4996602;28;20042;-57
2023/11/29 04:30:26;;;;;;;8.90;4.67;;;-1.10;81.70;;;1.03;59.24;96629.47;5013052;28;20057;-57
2023/11/29 04:32:54;;;;;;;8.10;4.70;;;-1.00;82.10;;;1.04;58.75;96627.66;5013146;28;20049;-57
2023/11/29 04:35:22;;;;;;;8.60;4.93;;;-1.00;81.60;;;1.03;59.08;96624.22;5014377;28;20049;-57
2023/11/29 04:37:50;;;;;;;9.87;5.63;;;-1.10;81.80;;;1.03;58.86;96615.50;5013944;28;20050;-57
2023/11/29 04:40:18;;;;;;;11.43;5.10;;;-1.10;82.30;;;1.04;58.42;96618.00;5013850;28;20057;-55
2023/11/29 04:42:46;;;;;;;8.03;4.63;;;-1.00;82.00;;;1.05;59.18;96618.84;5012730;28;20049;-55
2023/11/29 04:45:13;;;;;;;6.40;4.73;;;-1.10;81.80;;;1.02;58.47;96619.09;5012519;28;20050;-54
2023/11/29 04:47:41;;;;;;;7.70;4.67;;;-1.10;82.20;;;1.05;59.23;96624.94;5013842;28;20154;-56
2023/11/29 04:50:09;;;;;;;12.07;7.40;;;-1.10;81.60;;;1.05;59.29;96624.06;5010916;28;20053;-57
2023/11/29 04:52:36;;;;;;;71.73;28.77;;;-1.10;81.60;;;1.04;58.36;96618.00;5013680;28;20430;-56
2023/11/29 04:55:07;;;;;;;45.73;17.90;;;-1.10;81.40;;;0.98;59.01;96618.53;5013402;28;20050;-57
2023/11/29 04:57:35;;;;;;;44.97;19.57;;;-1.20;82.10;;;0.93;59.22;96620.69;5013763;28;20052;-57
2023/11/29 05:00:04;;;;;;;47.80;19.00;;;-1.20;82.60;;;0.94;58.71;96615.31;5013403;28;20053;-52
2023/11/29 05:02:32;;;;;;;18.30;8.93;;;-1.20;82.80;;;0.95;58.66;96619.63;5013397;28;20500;-56
2023/11/29 05:04:59;;;;;;;9.63;6.07;;;-1.20;83.20;;;0.94;58.72;96617.13;5013051;28;20054;-55
2023/11/29 05:07:27;;;;;;;8.63;5.70;;;-1.20;83.10;;;0.90;58.89;96613.91;5013407;28;20061;-55
2023/11/29 05:09:55;;;;;;;10.87;5.53;;;-1.30;83.30;;;0.88;59.70;96612.38;5013085;28;20037;-53
2023/11/29 05:12:22;;;;;;;10.53;5.67;;;-1.30;83.30;;;0.85;59.75;96610.00;5013253;28;20050;-52
2023/11/29 05:14:50;;;;;;;8.83;5.33;;;-1.30;83.60;;;0.85;59.48;96605.59;5012937;28;20037;-56
2023/11/29 05:17:18;;;;;;;8.40;5.20;;;-1.30;83.50;;;0.83;59.45;96604.06;5011971;28;20042;-56
2023/11/29 05:19:46;;;;;;;7.00;4.23;;;-1.20;83.30;;;0.85;59.70;96610.00;5012833;28;20068;-53
2023/11/29 05:22:14;;;;;;;7.40;4.27;;;-1.20;83.50;;;0.85;59.66;96599.53;5013189;28;20046;-53
2023/11/29 05:24:43;;;;;;;9.00;4.10;;;-1.20;83.30;;;0.84;59.47;96596.06;4995770;28;20053;-55
2023/11/29 05:27:10;;;;;;;8.80;4.80;;;-1.20;83.30;;;0.89;60.11;96600.94;5013325;28;20419;-55
2023/11/29 05:29:38;;;;;;;5.33;4.07;;;-1.10;83.30;;;0.94;60.03;96596.97;5011797;28;20042;-56
2023/11/29 05:32:06;;;;;;;7.57;4.43;;;-1.00;83.00;;;0.97;59.89;96596.72;5012570;28;20053;-55
2023/11/29 05:34:34;;;;;;;10.57;5.67;;;-1.00;82.90;;;1.04;59.79;96588.34;5012672;28;20068;-56
2023/11/29 05:37:02;;;;;;;76.50;35.03;;;-0.90;82.90;;;1.09;59.87;96589.63;5013057;28;20430;-53
2023/11/29 05:39:30;;;;;;;29.63;16.17;;;-0.90;82.30;;;1.16;59.76;96589.94;5012654;28;20042;-55
2023/11/29 05:41:57;;;;;;;16.80;9.47;;;-0.80;82.20;;;1.24;60.07;96594.53;5012912;28;20053;-56
2023/11/29 05:44:25;;;;;;;14.20;8.87;;;-0.80;81.60;;;1.31;59.38;96596.50;5011417;28;20057;-53
2023/11/29 05:46:53;;;;;;;12.20;7.80;;;-0.70;82.10;;;1.38;59.77;96609.97;5012581;28;20045;-56
2023/11/29 05:49:20;;;;;;;11.80;8.47;;;-0.60;81.90;;;1.42;59.32;96603.50;5012380;28;20041;-55
2023/11/29 05:51:48;;;;;;;10.37;6.43;;;-0.50;81.80;;;1.46;59.09;96598.81;5012615;28;20045;-55
2023/11/29 05:54:16;;;;;;;8.50;5.67;;;-0.50;81.90;;;1.53;59.55;96602.56;5011586;28;20046;-56
2023/11/29 05:56:43;;;;;;;9.50;5.87;;;-0.50;81.50;;;1.54;59.69;96594.56;5012638;28;20045;-56
2023/11/29 05:59:11;;;;;;;9.53;6.00;;;-0.50;81.10;;;1.54;59.23;96591.94;5004381;28;20499;-52
2023/11/29 06:01:39;;;;;;;8.47;6.30;;;-0.50;81.40;;;1.53;59.50;96594.69;5011656;28;20061;-55
2023/11/29 06:04:07;;;;;;;8.00;4.50;;;-0.50;82.00;;;1.53;58.81;96597.31;5011992;28;20487;-56
2023/11/29 06:06:35;;;;;;;7.10;4.73;;;-0.50;82.00;;;1.52;59.12;96591.25;5012484;28;20038;-56
2023/11/29 06:09:09;;;;;;;8.70;4.60;;;-0.50;81.40;;;1.49;59.37;96602.03;5012650;28;20466;-55
2023/11/29 06:11:37;;;;;;;6.45;4.30;;;-0.50;80.50;;;1.48;59.06;96610.84;5012739;28;20049;-56
2023/11/29 06:14:04;;;;;;;8.30;4.77;;;-0.50;80.60;;;1.52;59.03;96607.00;5012126;28;20419;-56
2023/11/29 06:16:33;;;;;;;7.47;4.73;;;-0.40;81.10;;;1.57;59.14;96612.69;5012228;28;20052;-56
2023/11/29 06:19:01;;;;;;;8.83;5.10;;;-0.30;80.80;;;1.63;59.52;96613.09;5012199;28;20042;-57
2023/11/29 06:21:29;;;;;;;7.80;5.20;;;-0.30;80.60;;;1.61;58.90;96618.50;5012151;28;20354;-57
2023/11/29 06:23:58;;;;;;;9.93;5.37;;;-0.30;80.70;;;1.62;59.00;96617.53;5011737;28;20045;-57
2023/11/29 06:26:26;;;;;;;8.90;4.97;;;-0.30;80.60;;;1.58;59.13;96619.59;5012652;28;20045;-56
2023/11/29 06:28:54;;;;;;;8.03;4.90;;;-0.30;81.30;;;1.62;59.52;96614.09;5011835;28;20096;-55
2023/11/29 06:31:22;;;;;;;7.80;5.23;;;-0.30;81.50;;;1.67;59.65;96611.91;5011603;28;20069;-58
2023/11/29 06:33:49;;;;;;;8.27;4.43;;;-0.30;81.10;;;1.67;59.57;96609.28;5010862;28;20065;-55
2023/11/29 06:36:17;;;;;;;8.43;5.07;;;-0.30;81.40;;;1.61;58.99;96608.00;5010579;28;20042;-59
2023/11/29 06:38:45;;;;;;;7.20;4.87;;;-0.30;81.00;;;1.59;59.70;96617.81;5011503;28;20065;-58
2023/11/29 06:41:12;;;;;;;8.67;5.00;;;-0.30;82.00;;;1.61;59.22;96612.41;5011793;28;20046;-57
2023/11/29 06:43:40;;;;;;;8.63;4.97;;;-0.30;81.60;;;1.64;59.73;96612.97;5009780;28;20046;-60
2023/11/29 06:46:08;;;;;;;14.00;6.53;;;-0.30;81.30;;;1.63;59.85;96607.84;5011151;28;20452;-59
2023/11/29 06:48:37;;;;;;;15.90;7.80;;;-0.30;81.20;;;1.67;59.17;96615.34;5011481;28;20522;-59
2023/11/29 06:51:05;;;;;;;7.80;4.77;;;-0.20;80.80;;;1.68;59.49;96610.94;5011302;28;20392;-58
2023/11/29 06:53:33;;;;;;;15.90;7.60;;;-0.20;81.00;;;1.66;59.60;96611.06;5010880;28;20041;-57
2023/11/29 06:56:01;;;;;;;14.30;7.10;;;-0.20;82.10;;;1.70;59.37;96611.63;5011291;28;20049;-58
2023/11/29 06:58:29;;;;;;;7.10;4.47;;;-0.20;82.30;;;1.65;59.68;96616.44;5011556;28;20056;-58
2023/11/29 07:00:57;;;;;;;8.10;4.13;;;-0.30;83.10;;;1.67;59.95;96609.28;5011063;28;20053;-57
2023/11/29 07:03:27;;;;;;;8.13;4.80;;;-0.20;83.30;;;1.74;59.56;96607.78;4994146;28;20500;-59
2023/11/29 07:05:57;;;;;;;14.77;7.67;;;-0.20;83.10;;;1.81;59.78;96600.22;5011069;28;20038;-59
2023/11/29 07:08:26;;;;;;;7.63;5.10;;;-0.10;82.80;;;1.85;59.73;96601.63;5010595;28;20045;-60
2023/11/29 07:10:57;;;;;;;6.53;4.87;;;-0.10;82.60;;;1.83;59.86;96606.16;5009877;28;20052;-58
2023/11/29 07:13:26;;;;;;;6.90;4.20;;;-0.10;81.60;;;1.89;59.81;96601.22;5011650;28;20053;-54
2023/11/29 07:15:56;;;;;;;8.00;4.77;;;0.10;82.20;;;1.86;59.67;96611.13;5010941;28;20046;-58
2023/11/29 07:18:25;;;;;;;7.13;4.30;;;0.00;82.40;;;1.86;59.65;96601.50;5011434;28;20093;-58
2023/11/29 07:20:53;;;;;;;6.33;3.87;;;0.00;81.20;;;1.91;59.47;96601.09;5010899;28;20046;-58
2023/11/29 07:23:22;;;;;;;6.37;4.37;;;0.00;81.10;;;1.85;59.18;96591.13;5011230;28;20038;-58
2023/11/29 07:25:50;;;;;;;7.57;4.17;;;-0.10;81.10;;;1.88;59.49;96590.84;5011056;28;20045;-59
2023/11/29 07:28:18;;;;;;;6.80;4.47;;;0.00;81.50;;;1.87;59.37;96589.19;5003066;28;20046;-57
2023/11/29 07:30:45;;;;;;;10.47;5.70;;;0.00;81.00;;;1.88;59.27;96591.69;5010826;28;20045;-56
2023/11/29 07:33:13;;;;;;;7.10;4.87;;;0.00;80.30;;;1.93;59.38;96581.59;5011091;28;20057;-58
2023/11/29 07:35:41;;;;;;;7.47;4.93;;;0.00;81.10;;;1.94;59.37;96578.03;5009423;28;20518;-58
2023/11/29 07:38:09;;;;;;;8.00;4.90;;;0.10;80.20;;;1.99;59.60;96576.78;5010885;28;20053;-59
2023/11/29 07:40:37;;;;;;;8.17;5.23;;;0.20;79.70;;;2.00;59.59;96586.31;5010889;28;20518;-60
2023/11/29 07:43:05;;;;;;;6.13;4.20;;;0.20;78.90;;;1.97;59.26;96587.41;5008309;28;20049;-59
2023/11/29 07:45:32;;;;;;;6.27;3.70;;;0.20;79.20;;;2.04;59.38;96593.81;5010448;28;20041;-59
2023/11/29 07:48:01;;;;;;;7.47;4.07;;;0.30;78.20;;;2.09;58.93;96590.75;5009801;28;20050;-58
2023/11/29 07:50:29;;;;;;;5.23;3.70;;;0.30;78.70;;;2.17;59.07;96586.53;5007664;28;20046;-58
2023/11/29 07:52:56;;;;;;;6.03;3.43;;;0.40;77.80;;;2.16;58.82;96597.97;5010123;28;20046;-56
2023/11/29 07:55:24;;;;;;;7.17;4.03;;;0.40;76.20;;;2.20;58.48;96593.28;5013243;28;20053;-57
2023/11/29 07:57:51;;;;;;;6.93;3.90;;;0.50;77.10;;;2.21;58.37;96592.34;5015178;28;20033;-57
2023/11/29 08:00:20;;;;;;;6.67;3.97;;;0.50;75.70;;;2.31;58.30;96590.56;5014958;28;20396;-56
2023/11/29 08:02:48;;;;;;;8.27;3.70;;;0.60;76.20;;;2.28;58.25;96587.38;5015122;28;20395;-58
2023/11/29 08:05:16;;;;;;;6.07;3.97;;;0.60;74.50;;;2.36;58.32;96596.25;5014382;28;20046;-57
2023/11/29 08:07:44;;;;;;;5.17;2.73;;;0.70;75.00;;;2.35;57.66;96601.63;5014682;28;20418;-57
2023/11/29 08:10:11;;;;;;;6.63;3.50;;;0.70;73.70;;;2.39;57.75;96604.81;5014476;28;20059;-58
2023/11/29 08:12:39;;;;;;;6.57;3.67;;;0.70;74.20;;;2.39;57.88;96610.91;5014481;28;20053;-53
2023/11/29 08:15:07;;;;;;;7.23;3.53;;;0.60;74.20;;;2.40;57.42;96599.41;5014228;28;20056;-56
2023/11/29 08:17:35;;;;;;;5.43;3.23;;;0.70;74.80;;;2.38;57.57;96605.75;5014522;28;20048;-56
2023/11/29 08:20:05;;;;;;;4.93;3.27;;;0.70;74.30;;;2.39;57.38;96599.56;5014239;28;20049;-57
2023/11/29 08:22:33;;;;;;;6.00;3.63;;;0.70;73.80;;;2.39;57.41;96605.63;5013852;28;20101;-57
2023/11/29 08:25:01;;;;;;;5.30;3.20;;;0.70;73.90;;;2.39;57.13;96597.75;5014023;28;20038;-57
2023/11/29 08:27:28;;;;;;;6.43;3.87;;;0.80;73.20;;;2.40;57.38;96590.69;5013299;28;20057;-58
2023/11/29 08:29:56;;;;;;;6.90;3.30;;;0.80;73.70;;;2.46;57.70;96598.03;5014153;28;20049;-58
2023/11/29 08:32:24;;;;;;;6.43;3.17;;;0.90;74.90;;;2.56;57.51;96598.91;5014336;28;20038;-56
2023/11/29 08:34:52;;;;;;;5.43;3.30;;;0.90;73.60;;;2.60;57.18;96597.66;5013742;28;20495;-58
2023/11/29 08:37:21;;;;;;;5.77;4.13;;;0.90;73.40;;;2.65;57.32;96597.22;5014222;28;20057;-57
2023/11/29 08:39:48;;;;;;;7.03;3.17;;;1.00;74.80;;;2.62;56.77;96603.59;5014228;28;20038;-56
2023/11/29 08:42:16;;;;;;;6.27;3.53;;;1.00;73.00;;;2.64;56.84;96603.47;5013774;28;20049;-57
2023/11/29 08:44:43;;;;;;;4.73;3.43;;;0.90;73.10;;;2.66;57.01;96593.66;5013747;28;20042;-58
2023/11/29 08:47:11;;;;;;;5.50;3.40;;;1.00;73.70;;;2.54;57.16;96595.56;5014137;28;20046;-59
2023/11/29 08:49:39;;;;;;;5.37;3.37;;;0.90;73.70;;;2.68;57.15;96596.97;5012841;28;20400;-59
2023/11/29 08:52:06;;;;;;;5.37;3.23;;;0.90;73.80;;;2.74;57.24;96588.53;5013618;28;20053;-59
2023/11/29 08:54:34;;;;;;;5.13;3.73;;;1.00;74.60;;;2.81;57.31;96579.13;5012856;28;20396;-58
2023/11/29 08:57:02;;;;;;;6.10;3.40;;;1.10;74.70;;;2.85;57.22;96595.44;5013728;28;20054;-59
2023/11/29 08:59:30;;;;;;;5.17;3.33;;;1.10;74.50;;;2.84;57.13;96583.25;5013897;28;20042;-59
2023/11/29 09:01:57;;;;;;;5.70;4.00;;;1.10;75.10;;;2.79;57.41;96591.53;5013674;28;20053;-59
2023/11/29 09:04:26;;;;;;;4.47;3.20;;;1.10;75.50;;;2.65;58.35;96595.41;5013523;28;20388;-59
2023/11/29 09:06:53;;;;;;;6.17;4.10;;;1.00;79.00;;;2.50;59.47;96586.28;5012394;28;20050;-59
2023/11/29 09:09:21;;;;;;;6.73;4.10;;;0.90;81.20;;;2.54;59.18;96585.06;5002906;28;20049;-59
2023/11/29 09:11:50;;;;;;;6.93;4.20;;;0.90;81.00;;;2.57;58.92;96587.41;5001153;28;20281;-59
2023/11/29 09:14:19;;;;;;;8.30;4.50;;;1.00;80.50;;;2.58;59.00;96573.31;5005533;28;20062;-59
2023/11/29 09:16:47;;;;;;;10.07;4.73;;;1.00;79.60;;;2.66;59.08;96575.25;5008190;28;20048;-59
2023/11/29 09:19:16;;;;;;;7.73;4.23;;;1.00;78.90;;;2.63;59.13;96565.00;5007612;28;20053;-59
2023/11/29 09:21:44;;;;;;;6.30;3.90;;;1.00;78.30;;;2.66;58.71;96581.31;5006604;28;20034;-59
2023/11/29 09:24:11;;;;;;;7.33;4.33;;;1.10;78.50;;;2.61;58.52;96575.66;5007287;28;20472;-59
2023/11/29 09:26:40;;;;;;;8.40;4.27;;;1.00;77.50;;;2.64;58.94;96575.38;5008409;28;20048;-58
2023/11/29 09:29:07;;;;;;;7.97;4.80;;;1.00;76.80;;;2.78;58.42;96578.56;5007854;28;20050;-59
2023/11/29 09:31:35;;;;;;;6.20;3.63;;;1.10;77.20;;;2.88;58.30;96579.38;5007950;28;20054;-59
2023/11/29 09:34:03;;;;;;;4.27;2.93;;;1.20;76.50;;;2.94;58.39;96578.81;5006060;28;20042;-59
2023/11/29 09:36:31;;;;;;;7.17;3.70;;;1.30;76.90;;;2.95;58.17;96575.25;5006071;28;20045;-59
2023/11/29 09:38:58;;;;;;;5.37;3.30;;;1.40;75.70;;;3.05;58.09;96585.75;5002955;28;20045;-59
2023/11/29 09:41:26;;;;;;;5.73;3.43;;;1.50;74.90;;;3.08;57.71;96583.66;5007381;28;20042;-59
2023/11/29 09:43:54;;;;;;;5.10;2.93;;;1.50;74.80;;;3.20;57.53;96591.38;5003237;28;20050;-58
2023/11/29 09:46:22;;;;;;;3.67;2.70;;;1.60;74.60;;;3.25;57.51;96600.50;5004451;28;20046;-59
2023/11/29 09:48:50;;;;;;;7.40;3.70;;;1.60;74.30;;;3.28;57.56;96594.16;5005020;28;20101;-59
2023/11/29 09:51:18;;;;;;;5.70;2.70;;;1.60;74.60;;;3.30;57.18;96597.47;5006565;28;20057;-59
2023/11/29 09:53:45;;;;;;;5.00;3.37;;;1.60;74.30;;;3.27;57.42;96593.31;5008599;28;20104;-59
2023/11/29 09:56:13;;;;;;;4.80;3.30;;;1.60;73.80;;;3.30;57.11;96584.31;5006526;28;20050;-59
2023/11/29 09:58:40;;;;;;;4.93;2.97;;;1.60;75.60;;;3.18;57.84;96590.69;5007616;28;20046;-59
2023/11/29 10:01:08;;;;;;;5.17;3.50;;;1.50;75.30;;;3.20;57.97;96584.34;5007175;28;20510;-59
2023/11/29 10:03:36;;;;;;;5.03;3.23;;;1.50;76.50;;;3.22;57.83;96589.44;5010446;28;20480;-59
2023/11/29 10:06:04;;;;;;;5.47;3.60;;;1.60;76.30;;;3.21;57.26;96582.53;5012549;28;20045;-59
2023/11/29 10:08:32;;;;;;;4.00;2.80;;;1.60;76.30;;;3.27;57.43;96584.59;5011315;28;20045;-59
2023/11/29 10:11:01;;;;;;;4.67;3.30;;;1.70;75.30;;;3.35;57.84;96584.72;5007155;28;20050;-59
2023/11/29 10:13:29;;;;;;;4.63;3.13;;;1.60;75.70;;;3.40;57.78;96593.00;5009307;28;20068;-59
2023/11/29 10:15:56;;;;;;;5.17;3.10;;;1.70;75.10;;;3.39;57.40;96586.06;5008896;28;20042;-59
2023/11/29 10:18:24;;;;;;;5.67;3.53;;;1.70;74.40;;;3.49;57.27;96588.69;5010496;28;20058;-59
2023/11/29 10:20:52;;;;;;;5.30;3.20;;;1.80;74.70;;;3.42;56.76;96592.88;4993724;28;20068;-59
2023/11/29 10:23:39;;;;;;;4.40;2.90;;;1.70;73.90;;;3.36;57.23;96591.63;5011377;28;20343;-58
2023/11/29 10:26:10;;;;;;;4.70;2.60;;;1.70;74.00;;;3.40;57.20;96587.75;5010044;28;20038;-58
2023/11/29 10:28:38;;;;;;;4.13;2.83;;;1.70;75.00;;;3.41;57.05;96578.03;5011933;28;20041;-59